createdAt,value
2018-03-12T00:00:50.210Z,17.97
2018-03-12T00:03:17.716Z,18.33
2018-03-12T00:05:46.095Z,17.63
2018-03-12T00:08:14.363Z,17.63
2018-03-12T00:10:42.617Z,18.80
2018-03-12T00:13:10.136Z,17.70
2018-03-12T00:15:37.620Z,19.40
2018-03-12T00:18:05.121Z,18.97
2018-03-12T00:20:33.450Z,18.53
2018-03-12T00:23:00.961Z,18.97
2018-03-12T00:25:29.232Z,19.87
2018-03-12T00:27:57.509Z,19.50
2018-03-12T00:30:25.784Z,17.90
2018-03-12T00:32:54.066Z,17.80
2018-03-12T00:35:21.627Z,18.97
2018-03-12T00:37:49.209Z,17.73
2018-03-12T00:40:16.745Z,18.90
2018-03-12T00:42:45.018Z,18.80
2018-03-12T00:45:13.323Z,21.03
2018-03-12T00:47:40.855Z,20.43
2018-03-12T00:50:09.139Z,20.13
2018-03-12T00:52:36.631Z,18.43
2018-03-12T00:55:04.140Z,22.93
2018-03-12T00:57:32.409Z,18.87
2018-03-12T01:00:00.693Z,18.73
2018-03-12T01:02:28.998Z,17.80
2018-03-12T01:04:56.510Z,19.40
2018-03-12T01:07:24.079Z,19.43
2018-03-12T01:09:51.571Z,19.07
2018-03-12T01:12:19.155Z,18.03
2018-03-12T01:14:46.689Z,19.77
2018-03-12T01:17:14.215Z,17.90
2018-03-12T01:19:41.732Z,18.13
2018-03-12T01:22:09.240Z,17.90
2018-03-12T01:24:36.724Z,18.87
2018-03-12T01:27:04.314Z,17.30
2018-03-12T01:29:31.839Z,18.30
2018-03-12T01:31:59.402Z,17.77
2018-03-12T01:34:27.686Z,17.73
2018-03-12T01:36:55.177Z,18.87
2018-03-12T01:39:22.692Z,21.17
2018-03-12T01:41:50.250Z,20.63
2018-03-12T01:44:18.504Z,19.90
2018-03-12T01:46:46.087Z,18.30
2018-03-12T01:49:14.371Z,20.00
2018-03-12T01:51:41.874Z,19.00
2018-03-12T01:54:09.404Z,19.47
2018-03-12T01:56:36.939Z,19.03
2018-03-12T01:59:05.187Z,21.20
2018-03-12T02:01:32.784Z,18.67
2018-03-12T02:04:00.303Z,19.60
2018-03-12T02:06:27.896Z,18.70
2018-03-12T02:08:55.403Z,20.37
2018-03-12T02:11:23.010Z,18.10
2018-03-12T02:13:51.265Z,18.27
2018-03-12T02:16:18.868Z,19.30
2018-03-12T02:18:46.383Z,20.90
2018-03-12T02:21:13.868Z,19.13
2018-03-12T02:23:42.128Z,22.07
2018-03-12T02:26:10.432Z,18.57
2018-03-12T02:28:37.932Z,19.07
2018-03-12T02:31:05.429Z,21.00
2018-03-12T02:33:33.738Z,19.53
2018-03-12T02:36:01.266Z,19.37
2018-03-12T02:38:29.542Z,19.20
2018-03-12T02:40:57.952Z,20.07
2018-03-12T02:43:25.442Z,20.27
2018-03-12T02:45:52.959Z,19.67
2018-03-12T02:48:20.465Z,20.90
2018-03-12T02:50:47.959Z,22.17
2018-03-12T02:53:16.238Z,22.33
2018-03-12T02:55:44.540Z,21.43
2018-03-12T02:58:12.042Z,23.23
2018-03-12T03:00:39.557Z,22.83
2018-03-12T03:03:07.080Z,22.20
2018-03-12T03:05:36.110Z,22.60
2018-03-12T03:08:03.628Z,24.17
2018-03-12T03:10:31.935Z,22.70
2018-03-12T03:12:59.483Z,24.37
2018-03-12T03:15:27.740Z,21.93
2018-03-12T03:17:55.259Z,21.67
2018-03-12T03:20:22.764Z,22.63
2018-03-12T03:22:51.069Z,23.90
2018-03-12T03:25:18.581Z,24.20
2018-03-12T03:27:46.171Z,24.10
2018-03-12T03:30:14.478Z,21.20
2018-03-12T03:32:41.995Z,24.70
2018-03-12T03:35:10.278Z,24.17
2018-03-12T03:37:38.541Z,23.93
2018-03-12T03:40:06.065Z,23.47
2018-03-12T03:42:33.564Z,25.47
2018-03-12T03:45:01.877Z,25.00
2018-03-12T03:47:30.109Z,24.97
2018-03-12T03:49:57.604Z,23.93
2018-03-12T03:52:25.099Z,27.17
2018-03-12T03:54:52.717Z,23.27
2018-03-12T03:57:20.207Z,23.33
2018-03-12T03:59:47.698Z,22.90
2018-03-12T04:02:15.215Z,24.73
2018-03-12T04:04:42.735Z,24.83
2018-03-12T04:07:11.012Z,23.40
2018-03-12T04:09:39.291Z,24.70
2018-03-12T04:12:07.583Z,23.10
2018-03-12T04:14:35.064Z,23.27
2018-03-12T04:17:02.664Z,22.73
2018-03-12T04:19:31.958Z,21.77
2018-03-12T04:22:00.271Z,23.27
2018-03-12T04:24:27.839Z,22.13
2018-03-12T04:26:55.370Z,21.93
2018-03-12T04:29:22.952Z,22.03
2018-03-12T04:31:50.475Z,23.43
2018-03-12T04:34:18.141Z,23.20
2018-03-12T04:36:45.591Z,22.53
2018-03-12T04:39:13.188Z,24.83
2018-03-12T04:41:41.473Z,24.37
2018-03-12T04:44:08.967Z,24.07
2018-03-12T04:46:36.501Z,23.00
2018-03-12T04:49:04.047Z,25.40
2018-03-12T04:51:32.318Z,24.40
2018-03-12T04:54:00.606Z,27.47
2018-03-12T04:56:28.096Z,25.03
2018-03-12T04:58:55.612Z,23.57
2018-03-12T05:01:23.923Z,24.37
2018-03-12T05:03:51.423Z,23.90
2018-03-12T05:06:19.754Z,23.97
2018-03-12T05:08:47.396Z,23.60
2018-03-12T05:11:14.964Z,30.90
2018-03-12T05:13:42.450Z,28.47
2018-03-12T05:16:10.047Z,27.90
2018-03-12T05:18:37.608Z,27.77
2018-03-12T05:21:05.878Z,26.30
2018-03-12T05:23:33.486Z,28.83
2018-03-12T05:26:01.006Z,25.97
2018-03-12T05:28:28.480Z,26.20
2018-03-12T05:30:56.763Z,27.17
2018-03-12T05:33:25.011Z,26.93
2018-03-12T05:35:52.530Z,27.90
2018-03-12T05:38:20.102Z,28.00
2018-03-12T05:40:47.610Z,31.07
2018-03-12T05:43:15.888Z,29.50
2018-03-12T05:45:44.165Z,28.87
2018-03-12T05:48:12.437Z,32.47
2018-03-12T05:50:40.725Z,35.27
2018-03-12T05:53:08.260Z,28.90
2018-03-12T05:55:36.564Z,28.63
2018-03-12T05:58:04.056Z,30.57
2018-03-12T06:00:31.583Z,28.63
2018-03-12T06:02:59.853Z,30.13
2018-03-12T06:05:28.128Z,34.00
2018-03-12T06:07:55.622Z,31.87
2018-03-12T06:10:23.131Z,28.43
2018-03-12T06:12:51.446Z,32.87
2018-03-12T06:15:18.968Z,32.33
2018-03-12T06:17:47.319Z,34.90
2018-03-12T06:20:14.818Z,33.20
2018-03-12T06:22:42.314Z,34.53
2018-03-12T06:25:09.859Z,34.40
2018-03-12T06:27:37.393Z,34.60
2018-03-12T06:30:04.925Z,33.90
2018-03-12T06:32:32.427Z,35.90
2018-03-12T06:34:59.984Z,36.47
2018-03-12T06:37:27.502Z,33.33
2018-03-12T06:39:55.103Z,35.03
2018-03-12T06:42:22.663Z,38.53
2018-03-12T06:44:50.212Z,36.23
2018-03-12T06:47:17.779Z,37.60
2018-03-12T06:49:45.337Z,35.87
2018-03-12T06:52:12.911Z,35.47
2018-03-12T06:54:40.532Z,34.63
2018-03-12T06:57:09.123Z,38.90
2018-03-12T06:59:37.491Z,33.30
2018-03-12T07:02:05.026Z,32.60
2018-03-12T07:04:33.611Z,35.37
2018-03-12T07:07:01.196Z,35.67
2018-03-12T07:09:29.600Z,34.83
2018-03-12T07:11:57.729Z,36.27
2018-03-12T07:14:25.230Z,29.77
2018-03-12T07:16:52.742Z,36.70
2018-03-12T07:19:20.247Z,32.33
2018-03-12T07:21:47.801Z,31.43
2018-03-12T07:24:16.105Z,29.93
2018-03-12T07:26:43.603Z,32.87
2018-03-12T07:29:11.184Z,30.27
2018-03-12T07:31:39.462Z,31.40
2018-03-12T07:34:07.737Z,29.73
2018-03-12T07:36:35.244Z,30.13
2018-03-12T07:39:02.748Z,27.80
2018-03-12T07:41:30.303Z,29.13
2018-03-12T07:43:57.907Z,26.60
2018-03-12T07:46:25.413Z,27.53
2018-03-12T07:48:52.932Z,31.83
2018-03-12T07:51:20.442Z,31.43
2018-03-12T07:53:47.929Z,28.27
2018-03-12T07:56:15.434Z,27.70
2018-03-12T07:58:43.197Z,24.93
2018-03-12T08:01:10.704Z,27.77
2018-03-12T08:03:38.959Z,26.97
2018-03-12T08:06:06.495Z,27.57
2018-03-12T08:08:33.996Z,26.83
2018-03-12T08:11:02.259Z,29.00
2018-03-12T08:13:30.536Z,27.47
2018-03-12T08:15:58.074Z,29.83
2018-03-12T08:18:26.685Z,29.13
2018-03-12T08:20:54.969Z,32.17
2018-03-12T08:23:22.531Z,26.67
2018-03-12T08:25:50.084Z,26.37
2018-03-12T08:28:18.336Z,26.00
2018-03-12T08:30:46.615Z,26.73
2018-03-12T08:33:14.110Z,28.73
2018-03-12T08:35:42.390Z,26.53
2018-03-12T08:38:09.951Z,28.00
2018-03-12T08:40:37.502Z,28.43
2018-03-12T08:43:05.785Z,28.73
2018-03-12T08:45:33.319Z,26.63
2018-03-12T08:48:01.009Z,28.43
2018-03-12T08:50:28.680Z,25.40
2018-03-12T08:52:56.283Z,27.67
2018-03-12T08:55:23.907Z,26.90
2018-03-12T08:57:51.678Z,30.83
2018-03-12T09:00:19.204Z,27.83
2018-03-12T09:02:46.729Z,29.50
2018-03-12T09:05:14.229Z,28.67
2018-03-12T09:07:41.937Z,25.23
2018-03-12T09:10:09.453Z,24.13
2018-03-12T09:12:37.838Z,24.93
2018-03-12T09:15:05.414Z,23.90
2018-03-12T09:17:32.943Z,21.87
2018-03-12T09:20:01.232Z,20.43
2018-03-12T09:22:28.881Z,20.13
2018-03-12T09:24:57.168Z,20.53
2018-03-12T09:27:24.674Z,20.00
2018-03-12T09:29:52.207Z,19.00
2018-03-12T09:32:20.556Z,21.07
2018-03-12T09:34:48.849Z,23.07
2018-03-12T09:37:16.408Z,21.77
2018-03-12T09:39:43.968Z,20.17
2018-03-12T09:42:11.490Z,21.57
2018-03-12T09:44:39.025Z,20.37
2018-03-12T09:47:06.524Z,20.10
2018-03-12T09:49:34.946Z,18.83
2018-03-12T09:52:02.445Z,20.50
2018-03-12T09:54:29.998Z,20.73
2018-03-12T09:56:57.784Z,21.47
2018-03-12T09:59:26.063Z,19.93
2018-03-12T10:01:54.334Z,20.10
2018-03-12T10:04:22.785Z,21.67
2018-03-12T10:06:50.343Z,21.47
2018-03-12T10:09:17.894Z,20.63
2018-03-12T10:11:45.387Z,22.27
2018-03-12T10:14:12.964Z,21.90
2018-03-12T10:16:41.507Z,21.23
2018-03-12T10:19:09.936Z,20.97
2018-03-12T10:21:37.725Z,20.77
2018-03-12T10:24:05.230Z,22.30
2018-03-12T10:26:32.776Z,23.57
2018-03-12T10:29:00.311Z,22.93
2018-03-12T10:31:27.866Z,23.17
2018-03-12T10:33:55.396Z,24.43
2018-03-12T10:36:23.008Z,23.00
2018-03-12T10:38:50.545Z,23.27
2018-03-12T10:41:18.046Z,22.53
2018-03-12T10:43:45.744Z,22.73
2018-03-12T10:46:13.262Z,24.30
2018-03-12T10:48:41.036Z,27.03
2018-03-12T10:51:08.670Z,24.83
2018-03-12T10:53:36.237Z,23.80
2018-03-12T10:56:03.758Z,22.90
2018-03-12T10:58:31.282Z,22.97
2018-03-12T11:01:01.490Z,22.27
2018-03-12T11:03:33.019Z,24.30
2018-03-12T11:06:03.370Z,26.97
2018-03-12T11:08:30.883Z,23.80
2018-03-12T11:10:59.257Z,24.57
2018-03-12T11:13:26.764Z,25.57
2018-03-12T11:15:54.252Z,24.40
2018-03-12T11:18:21.848Z,21.97
2018-03-12T11:20:49.371Z,22.67
2018-03-12T11:23:16.891Z,23.43
2018-03-12T11:25:44.418Z,23.43
2018-03-12T11:28:11.944Z,26.43
2018-03-12T11:30:40.212Z,26.70
2018-03-12T11:33:08.474Z,25.70
2018-03-12T11:35:35.988Z,24.87
2018-03-12T11:38:03.546Z,28.73
2018-03-12T11:40:31.111Z,25.10
2018-03-12T11:42:58.716Z,26.37
2018-03-12T11:45:26.216Z,28.63
2018-03-12T11:47:53.700Z,27.53
2018-03-12T11:50:21.217Z,25.93
2018-03-12T11:52:49.488Z,28.07
2018-03-12T11:55:17.777Z,28.33
2018-03-12T11:57:45.268Z,29.77
2018-03-12T12:00:12.798Z,28.37
2018-03-12T12:02:40.327Z,27.57
2018-03-12T12:05:08.617Z,29.13
2018-03-12T12:07:36.896Z,29.50
2018-03-12T12:10:05.196Z,35.83
2018-03-12T12:12:33.531Z,28.97
2018-03-12T12:15:01.040Z,28.47
2018-03-12T12:17:28.610Z,32.27
2018-03-12T12:19:56.113Z,31.43
2018-03-12T12:22:24.376Z,32.77
2018-03-12T12:24:51.913Z,31.83
2018-03-12T12:27:19.415Z,29.90
2018-03-12T12:29:47.695Z,32.67
2018-03-12T12:32:16.092Z,30.47
2018-03-12T12:34:43.632Z,29.70
2018-03-12T12:37:11.139Z,30.57
2018-03-12T12:39:38.776Z,31.60
2018-03-12T12:42:06.284Z,32.47
2018-03-12T12:44:33.864Z,31.03
2018-03-12T12:47:02.184Z,31.27
2018-03-12T12:49:29.687Z,31.40
2018-03-12T12:51:57.281Z,30.30
2018-03-12T12:54:24.873Z,30.93
2018-03-12T12:56:52.407Z,33.20
2018-03-12T12:59:20.049Z,34.40
2018-03-12T13:01:48.472Z,32.87
2018-03-12T13:04:16.036Z,31.97
2018-03-12T13:06:43.525Z,40.90
2018-03-12T13:09:11.104Z,34.37
2018-03-12T13:11:39.409Z,36.20
2018-03-12T13:14:06.916Z,37.13
2018-03-12T13:16:34.532Z,37.83
2018-03-12T13:19:02.068Z,37.43
2018-03-12T13:21:30.323Z,36.10
2018-03-12T13:23:57.835Z,36.10
2018-03-12T13:26:25.380Z,35.50
2018-03-12T13:28:52.894Z,38.07
2018-03-12T13:31:20.580Z,41.17
2018-03-12T13:33:48.076Z,34.67
2018-03-12T13:36:15.632Z,39.10
2018-03-12T13:38:43.195Z,40.43
2018-03-12T13:41:10.740Z,41.73
2018-03-12T13:43:38.431Z,43.93
2018-03-12T13:46:05.950Z,46.73
2018-03-12T13:48:33.548Z,47.00
2018-03-12T13:51:01.068Z,49.87
2018-03-12T13:53:28.582Z,51.37
2018-03-12T13:55:56.111Z,49.37
2018-03-12T13:58:23.648Z,53.37
2018-03-12T14:00:51.159Z,53.43
2018-03-12T14:03:18.810Z,51.43
2018-03-12T14:05:46.315Z,50.83
2018-03-12T14:08:14.594Z,54.60
2018-03-12T14:10:42.910Z,50.73
2018-03-12T14:13:10.415Z,50.63
2018-03-12T14:15:38.736Z,52.67
2018-03-12T14:18:06.238Z,51.33
2018-03-12T14:20:33.748Z,51.53
2018-03-12T14:23:01.271Z,52.70
2018-03-12T14:25:29.563Z,53.83
2018-03-12T14:27:57.880Z,46.87
2018-03-12T14:30:25.382Z,49.37
2018-03-12T14:32:52.883Z,49.63
2018-03-12T14:35:20.402Z,47.87
2018-03-12T14:37:47.939Z,46.80
2018-03-12T14:40:15.453Z,42.53
2018-03-12T14:42:42.981Z,44.57
2018-03-12T14:45:10.557Z,44.67
2018-03-12T14:47:38.868Z,44.80
2018-03-12T14:50:06.394Z,45.73
2018-03-12T14:52:33.935Z,42.00
2018-03-12T14:55:02.226Z,43.40
2018-03-12T14:57:30.489Z,40.00
2018-03-12T14:59:58.749Z,36.77
2018-03-12T15:02:26.257Z,39.80
2018-03-12T15:04:53.786Z,39.27
2018-03-12T15:07:22.088Z,37.20
2018-03-12T15:09:49.572Z,38.60
2018-03-12T15:12:17.077Z,35.67
2018-03-12T15:14:45.375Z,31.90
2018-03-12T15:17:12.919Z,35.63
2018-03-12T15:19:41.195Z,37.27
2018-03-12T15:22:09.482Z,33.60
2018-03-12T15:24:37.007Z,34.03
2018-03-12T15:27:04.539Z,33.53
2018-03-12T15:29:32.062Z,30.77
2018-03-12T15:31:59.555Z,31.33
2018-03-12T15:34:27.080Z,31.20
2018-03-12T15:36:54.644Z,29.77
2018-03-12T15:39:22.162Z,29.80
2018-03-12T15:41:50.439Z,25.57
2018-03-12T15:44:18.753Z,25.67
2018-03-12T15:46:46.258Z,24.07
2018-03-12T15:49:13.773Z,24.43
2018-03-12T15:51:41.292Z,22.27
2018-03-12T15:54:08.884Z,21.83
2018-03-12T15:56:38.202Z,23.00
2018-03-12T15:59:05.708Z,20.97
2018-03-12T16:01:33.260Z,22.13
2018-03-12T16:04:00.755Z,20.73
2018-03-12T16:06:29.072Z,21.00
2018-03-12T16:08:56.572Z,19.23
2018-03-12T16:11:24.930Z,21.60
2018-03-12T16:13:52.479Z,20.57
2018-03-12T16:16:19.999Z,21.73
2018-03-12T16:18:48.273Z,21.20
2018-03-12T16:21:15.984Z,20.73
2018-03-12T16:23:43.484Z,22.57
2018-03-12T16:26:11.761Z,22.37
2018-03-12T16:28:40.063Z,19.60
2018-03-12T16:31:07.676Z,20.17
2018-03-12T16:33:35.356Z,20.43
2018-03-12T16:36:03.647Z,19.67
2018-03-12T16:38:31.940Z,20.00
2018-03-12T16:40:59.454Z,20.93
2018-03-12T16:43:27.847Z,20.67
2018-03-12T16:45:55.439Z,21.27
2018-03-12T16:48:22.988Z,22.03
2018-03-12T16:50:51.248Z,23.90
2018-03-12T16:53:18.785Z,23.57
2018-03-12T16:55:46.297Z,24.07
2018-03-12T16:58:13.829Z,23.50
2018-03-12T17:00:42.109Z,25.53
2018-03-12T17:03:10.410Z,24.23
2018-03-12T17:05:37.993Z,24.83
2018-03-12T17:08:05.532Z,24.20
2018-03-12T17:10:33.056Z,25.27
2018-03-12T17:13:01.378Z,25.20
2018-03-12T17:15:28.888Z,28.87
2018-03-12T17:17:57.201Z,26.77
2018-03-12T17:20:24.872Z,27.30
2018-03-12T17:22:52.377Z,25.73
2018-03-12T17:25:19.886Z,27.00
2018-03-12T17:27:47.393Z,25.73
2018-03-12T17:30:15.014Z,28.77
2018-03-12T17:32:42.531Z,26.80
2018-03-12T17:35:10.054Z,25.50
2018-03-12T17:37:37.553Z,29.33
2018-03-12T17:40:05.849Z,28.67
2018-03-12T17:42:33.367Z,27.97
2018-03-12T17:45:00.855Z,26.63
2018-03-12T17:47:28.399Z,27.30
2018-03-12T17:49:56.700Z,28.33
2018-03-12T17:52:24.217Z,26.13
2018-03-12T17:54:51.706Z,28.63
2018-03-12T17:57:19.983Z,28.13
2018-03-12T17:59:47.543Z,26.50
2018-03-12T18:02:15.069Z,23.60
2018-03-12T18:04:42.829Z,26.20
2018-03-12T18:07:10.584Z,28.07
2018-03-12T18:09:38.103Z,25.43
2018-03-12T18:12:05.612Z,25.47
2018-03-12T18:14:33.135Z,20.23
2018-03-12T18:17:00.666Z,19.17
2018-03-12T18:19:28.185Z,20.37
2018-03-12T18:21:55.731Z,18.27
2018-03-12T18:24:23.235Z,16.93
2018-03-12T18:26:51.551Z,17.07
2018-03-12T18:29:19.038Z,17.23
2018-03-12T18:31:46.563Z,16.30
2018-03-12T18:34:14.078Z,16.13
2018-03-12T18:36:42.456Z,16.57
2018-03-12T18:39:10.732Z,16.30
2018-03-12T18:41:39.014Z,17.80
2018-03-12T18:44:07.267Z,17.10
2018-03-12T18:46:34.787Z,16.77
2018-03-12T18:49:02.311Z,16.00
2018-03-12T18:51:30.596Z,14.63
2018-03-12T18:53:58.855Z,15.40
2018-03-12T18:56:26.356Z,14.93
2018-03-12T18:58:53.876Z,14.43
2018-03-12T19:01:22.165Z,16.90
2018-03-12T19:03:50.618Z,14.90
2018-03-12T19:06:25.397Z,14.87
2018-03-12T19:08:53.139Z,15.03
2018-03-12T19:11:22.397Z,14.67
2018-03-12T19:13:49.999Z,14.73
2018-03-12T19:16:18.289Z,17.60
2018-03-12T19:18:45.797Z,16.63
2018-03-12T19:21:13.466Z,16.10
2018-03-12T19:23:42.914Z,17.47
2018-03-12T19:26:15.262Z,15.83
2018-03-12T19:28:45.869Z,15.87
2018-03-12T19:31:20.207Z,17.70
2018-03-12T19:33:47.705Z,17.90
2018-03-12T19:36:15.267Z,17.53
2018-03-12T19:38:42.808Z,18.13
2018-03-12T19:41:10.644Z,17.20
2018-03-12T19:43:38.592Z,16.50
2018-03-12T19:46:06.220Z,17.80
2018-03-12T19:48:33.713Z,16.63
2018-03-12T19:51:04.451Z,15.77
2018-03-12T19:53:41.392Z,19.03
2018-03-12T19:56:08.953Z,17.33
2018-03-12T19:58:36.486Z,17.50
2018-03-12T20:01:04.793Z,16.77
2018-03-12T20:03:32.344Z,16.60
2018-03-12T20:06:00.912Z,18.87
2018-03-12T20:08:28.530Z,19.03
2018-03-12T20:10:56.133Z,17.23
2018-03-12T20:13:30.465Z,16.83
2018-03-12T20:15:59.697Z,19.17
2018-03-12T20:18:27.248Z,16.53
2018-03-12T20:20:54.745Z,17.17
2018-03-12T20:23:23.012Z,15.57
2018-03-12T20:25:51.442Z,16.40
2018-03-12T20:28:20.760Z,16.43
2018-03-12T20:30:48.317Z,14.50
2018-03-12T20:33:15.864Z,16.23
2018-03-12T20:35:43.396Z,16.30
2018-03-12T20:38:11.692Z,15.70
2018-03-12T20:40:39.280Z,14.60
2018-03-12T20:43:06.879Z,13.87
2018-03-12T20:45:35.222Z,14.57
2018-03-12T20:48:02.728Z,14.40
2018-03-12T20:50:30.995Z,16.67
2018-03-12T20:52:58.541Z,16.77
2018-03-12T20:55:26.092Z,16.60
2018-03-12T20:57:54.765Z,17.60
2018-03-12T21:00:22.679Z,18.30
2018-03-12T21:02:50.480Z,17.13
2018-03-12T21:05:19.163Z,18.50
2018-03-12T21:07:48.475Z,20.77
2018-03-12T21:10:17.100Z,20.80
2018-03-12T21:12:47.442Z,23.17
2018-03-12T21:15:16.204Z,21.00
2018-03-12T21:17:45.750Z,24.03
2018-03-12T21:20:13.605Z,22.63
2018-03-12T21:22:42.446Z,20.23
2018-03-12T21:25:11.242Z,21.50
2018-03-12T21:27:39.591Z,22.40
2018-03-12T21:30:07.945Z,23.97
2018-03-12T21:35:13.026Z,22.00
2018-03-12T21:37:43.703Z,23.90
2018-03-12T21:40:12.296Z,20.87
2018-03-12T21:42:41.970Z,25.30
2018-03-12T21:45:11.457Z,22.13
2018-03-12T21:47:39.558Z,24.50
2018-03-12T21:50:09.239Z,24.50
2018-03-12T21:52:37.237Z,26.43
2018-03-12T21:55:06.338Z,24.70
2018-03-12T21:57:36.939Z,27.17
2018-03-12T22:00:06.131Z,24.83
2018-03-12T22:02:34.884Z,26.13
2018-03-12T22:05:05.000Z,27.17
2018-03-12T22:07:35.008Z,23.87
2018-03-12T22:10:08.197Z,27.40
2018-03-12T22:12:43.417Z,24.43
2018-03-12T22:15:14.333Z,25.37
2018-03-12T22:17:47.324Z,23.93
2018-03-12T22:20:18.354Z,24.60
2018-03-12T22:22:45.948Z,22.87
2018-03-12T22:25:13.561Z,26.67
2018-03-12T22:27:41.078Z,22.47
2018-03-12T22:30:09.371Z,23.37
2018-03-12T22:32:37.628Z,23.80
2018-03-12T22:35:05.267Z,24.00
2018-03-12T22:37:32.862Z,21.83
2018-03-12T22:40:01.154Z,21.63
2018-03-12T22:42:28.748Z,20.70
2018-03-12T22:44:56.300Z,22.37
2018-03-12T22:47:23.854Z,19.87
2018-03-12T22:49:51.343Z,18.87
2018-03-12T22:52:19.007Z,19.07
2018-03-12T22:54:46.560Z,20.10
2018-03-12T22:57:14.094Z,19.47
2018-03-12T22:59:41.704Z,20.80
2018-03-12T23:02:09.198Z,21.93
2018-03-12T23:04:37.476Z,24.07
2018-03-12T23:07:05.076Z,25.40
2018-03-12T23:09:32.668Z,31.63
2018-03-12T23:12:00.978Z,32.33
2018-03-12T23:14:28.475Z,30.53
2018-03-12T23:16:55.976Z,34.03
2018-03-12T23:19:24.328Z,38.00
2018-03-12T23:21:51.904Z,40.47
2018-03-12T23:24:20.184Z,44.23
2018-03-12T23:26:48.482Z,43.07
2018-03-12T23:29:16.054Z,43.43
2018-03-12T23:31:43.595Z,43.67
2018-03-12T23:34:11.880Z,41.67
2018-03-12T23:36:39.504Z,43.10
2018-03-12T23:39:07.008Z,41.70
2018-03-12T23:41:34.602Z,39.43
2018-03-12T23:44:02.113Z,41.93
2018-03-12T23:46:30.386Z,36.43
2018-03-12T23:48:58.664Z,36.57
2018-03-12T23:51:26.948Z,31.80
2018-03-12T23:53:54.542Z,32.17
2018-03-12T23:56:22.129Z,29.90
2018-03-12T23:58:50.435Z,31.53
